createdAt,value
2023-04-02T00:01:37.734Z,96847.94
2023-04-02T00:04:26.373Z,96849.09
2023-04-02T00:06:57.755Z,96849.09
2023-04-02T00:09:38.649Z,96857.34
2023-04-02T00:12:17.336Z,96851.84
2023-04-02T00:14:52.528Z,96850.22
2023-04-02T00:17:24.540Z,96851.38
2023-04-02T00:19:59.153Z,96847.81
2023-04-02T00:22:31.534Z,96858.00
2023-04-02T00:25:02.561Z,96857.19
2023-04-02T00:27:32.169Z,96859.63
2023-04-02T00:30:00.916Z,96851.69
2023-04-02T00:32:31.917Z,96852.50
2023-04-02T00:35:02.514Z,96861.91
2023-04-02T00:37:39.420Z,96856.41
2023-04-02T00:40:16.750Z,96864.19
2023-04-02T00:42:46.431Z,96859.47
2023-04-02T00:45:22.921Z,96857.88
2023-04-02T00:47:53.085Z,96864.19
2023-04-02T00:50:29.651Z,96864.19
2023-04-02T00:53:00.743Z,96857.88
2023-04-02T00:55:37.081Z,96858.66
2023-04-02T00:58:08.103Z,96860.63
2023-04-02T01:00:37.497Z,96869.69
2023-04-02T01:03:34.431Z,96868.06
2023-04-02T01:06:10.579Z,96870.81
2023-04-02T01:08:53.933Z,96870.81
2023-04-02T01:11:39.221Z,96870.34
2023-04-02T01:14:13.681Z,96873.09
2023-04-02T01:16:53.994Z,96870.34
2023-04-02T01:19:50.380Z,96876.66
2023-04-02T01:22:30.882Z,96871.47
2023-04-02T01:24:59.483Z,96874.22
2023-04-02T01:27:33.676Z,96876.50
2023-04-02T01:30:07.317Z,96878.13
2023-04-02T01:32:36.872Z,96875.38
2023-04-02T01:35:06.242Z,96877.31
2023-04-02T01:37:44.881Z,96884.75
2023-04-02T01:40:34.133Z,96882.00
2023-04-02T01:43:11.820Z,96883.94
2023-04-02T01:45:41.691Z,96892.22
2023-04-02T01:48:16.701Z,96889.47
2023-04-02T01:50:46.305Z,96898.53
2023-04-02T01:53:17.934Z,96888.66
2023-04-02T01:55:48.984Z,96896.91
2023-04-02T01:58:21.006Z,96889.78
2023-04-02T02:00:54.409Z,96896.09
2023-04-02T02:03:24.305Z,96898.84
2023-04-02T02:05:53.287Z,96905.16
2023-04-02T02:08:33.104Z,96902.41
2023-04-02T02:11:01.792Z,96903.22
2023-04-02T02:13:32.077Z,96907.91
2023-04-02T02:16:04.327Z,96909.53
2023-04-02T02:18:33.803Z,96907.09
2023-04-02T02:21:08.812Z,96907.09
2023-04-02T02:23:37.958Z,96907.09
2023-04-02T02:26:07.850Z,96911.81
2023-04-02T02:28:40.868Z,96913.41
2023-04-02T02:31:17.892Z,96918.13
2023-04-02T02:33:52.218Z,96911.81
2023-04-02T02:36:28.706Z,96924.44
2023-04-02T02:39:05.131Z,96913.41
2023-04-02T02:41:46.332Z,96915.38
2023-04-02T02:44:18.760Z,96924.44
2023-04-02T02:46:53.476Z,96923.63
2023-04-02T02:49:28.259Z,96928.31
2023-04-02T02:52:02.706Z,96932.22
2023-04-02T02:54:45.129Z,96933.03
2023-04-02T02:57:19.101Z,96938.53
2023-04-02T02:59:49.757Z,96936.56
2023-04-02T03:02:20.222Z,96943.22
2023-04-02T03:04:53.100Z,96943.22
2023-04-02T03:07:26.509Z,96946.31
2023-04-02T03:10:05.500Z,96952.59
2023-04-02T03:12:46.518Z,96951.47
2023-04-02T03:15:22.851Z,96958.13
2023-04-02T03:17:58.839Z,96960.88
2023-04-02T03:20:36.659Z,96963.63
2023-04-02T03:23:09.913Z,96967.19
2023-04-02T03:25:42.383Z,96967.50
2023-04-02T03:28:15.724Z,96969.13
2023-04-02T03:30:48.994Z,96967.50
2023-04-02T03:33:25.132Z,96968.31
2023-04-02T03:36:00.460Z,96973.00
2023-04-02T03:38:32.453Z,96978.50
2023-04-02T03:41:06.093Z,96973.00
2023-04-02T03:43:40.611Z,96976.56
2023-04-02T03:46:23.418Z,96977.38
2023-04-02T03:48:57.324Z,96976.09
2023-04-02T03:51:31.300Z,96984.03
2023-04-02T03:54:00.302Z,96983.22
2023-04-02T03:56:33.998Z,96992.28
2023-04-02T03:59:12.091Z,96993.41
2023-04-02T04:01:46.553Z,96994.53
2023-04-02T04:04:20.503Z,96993.41
2023-04-02T04:06:52.614Z,97003.28
2023-04-02T04:09:27.033Z,97005.22
2023-04-02T04:12:03.115Z,97011.53
2023-04-02T04:14:34.340Z,97016.25
2023-04-02T04:17:13.964Z,97013.50
2023-04-02T04:19:49.510Z,97012.69
2023-04-02T04:22:20.735Z,97015.44
2023-04-02T04:24:53.138Z,97020.13
2023-04-02T04:27:33.425Z,97024.81
2023-04-02T04:30:05.840Z,97020.13
2023-04-02T04:32:42.697Z,97017.38
2023-04-02T04:35:27.104Z,97024.81
2023-04-02T04:38:00.295Z,97029.50
2023-04-02T04:40:32.665Z,97034.22
2023-04-02T04:43:04.778Z,97039.72
2023-04-02T04:45:42.531Z,97045.22
2023-04-02T04:48:17.220Z,97049.09
2023-04-02T04:50:51.667Z,97054.59
2023-04-02T04:53:22.851Z,97056.22
2023-04-02T04:55:59.664Z,97056.22
2023-04-02T04:58:45.249Z,97056.22
2023-04-02T05:01:18.761Z,97057.84
2023-04-02T05:03:55.343Z,97063.34
2023-04-02T05:06:36.252Z,97060.59
2023-04-02T05:09:13.850Z,97064.16
2023-04-02T05:11:46.967Z,97066.91
2023-04-02T05:14:26.925Z,97079.53
2023-04-02T05:17:04.356Z,97074.34
2023-04-02T05:19:39.119Z,97071.59
2023-04-02T05:22:20.115Z,97075.97
2023-04-02T05:24:58.369Z,97083.09
2023-04-02T05:27:39.122Z,97083.91
2023-04-02T05:30:29.969Z,97077.59
2023-04-02T05:33:05.146Z,97087.47
2023-04-02T05:35:37.592Z,97084.25
2023-04-02T05:38:08.802Z,97091.38
2023-04-02T05:40:42.414Z,97094.13
2023-04-02T05:43:16.208Z,97094.13
2023-04-02T05:45:52.615Z,97099.63
2023-04-02T05:48:26.436Z,97109.50
2023-04-02T05:50:58.787Z,97111.13
2023-04-02T05:53:36.027Z,97106.75
2023-04-02T05:56:11.757Z,97109.97
2023-04-02T05:58:45.676Z,97121.47
2023-04-02T06:01:36.360Z,97121.97
2023-04-02T06:04:16.071Z,97124.72
2023-04-02T06:06:50.004Z,97134.59
2023-04-02T06:09:32.671Z,97143.34
2023-04-02T06:12:13.235Z,97144.97
2023-04-02T06:14:42.495Z,97143.34
2023-04-02T06:17:15.370Z,97144.97
2023-04-02T06:19:44.470Z,97152.09
2023-04-02T06:22:23.596Z,97151.28
2023-04-02T06:25:04.561Z,97154.84
2023-04-02T06:27:43.037Z,97160.03
2023-04-02T06:30:19.553Z,97158.41
2023-04-02T06:32:50.894Z,97166.34
2023-04-02T06:35:20.641Z,97167.47
2023-04-02T06:38:01.525Z,97171.03
2023-04-02T06:40:42.181Z,97178.97
2023-04-02T06:43:33.008Z,97183.66
2023-04-02T06:46:19.174Z,97190.78
2023-04-02T06:49:06.668Z,97196.28
2023-04-02T06:51:38.349Z,97191.13
2023-04-02T06:54:13.886Z,97195.00
2023-04-02T06:56:46.691Z,97200.19
2023-04-02T06:59:21.272Z,97205.69
2023-04-02T07:01:54.077Z,97210.38
2023-04-02T07:04:23.884Z,97211.03
2023-04-02T07:06:54.847Z,97213.94
2023-04-02T07:09:26.935Z,97220.06
2023-04-02T07:12:00.327Z,97225.91
2023-04-02T07:14:28.725Z,97231.91
2023-04-02T07:16:57.241Z,97223.31
2023-04-02T07:19:25.938Z,97233.19
2023-04-02T07:21:57.527Z,97239.19
2023-04-02T07:24:29.219Z,97240.00
2023-04-02T07:26:57.681Z,97243.56
2023-04-02T07:29:27.439Z,97246.00
2023-04-02T07:31:55.921Z,97248.44
2023-04-02T07:34:24.491Z,97248.94
2023-04-02T07:36:52.873Z,97250.53
2023-04-02T07:39:21.502Z,97252.97
2023-04-02T07:41:55.618Z,97257.03
2023-04-02T07:44:24.183Z,97251.53
2023-04-02T07:46:54.065Z,97261.09
2023-04-02T07:49:22.877Z,97259.97
2023-04-02T07:51:53.189Z,97263.53
2023-04-02T07:54:21.643Z,97267.91
2023-04-02T07:56:50.086Z,97270.31
2023-04-02T07:59:18.541Z,97268.38
2023-04-02T08:01:47.389Z,97281.03
2023-04-02T08:04:20.537Z,97285.72
2023-04-02T08:06:50.824Z,97285.41
2023-04-02T08:09:19.420Z,97289.78
2023-04-02T08:11:47.861Z,97289.78
2023-04-02T08:14:16.279Z,97291.41
2023-04-02T08:16:46.892Z,97301.59
2023-04-02T08:19:15.484Z,97302.41
2023-04-02T08:21:45.606Z,97308.72
2023-04-02T08:24:14.060Z,97305.97
2023-04-02T08:26:43.964Z,97309.53
2023-04-02T08:29:13.902Z,97315.06
2023-04-02T08:31:42.603Z,97322.19
2023-04-02T08:34:11.164Z,97319.09
2023-04-02T08:36:42.578Z,97325.75
2023-04-02T08:39:12.702Z,97323.00
2023-04-02T08:41:48.301Z,97323.81
2023-04-02T08:44:32.201Z,97323.81
2023-04-02T08:47:03.138Z,97329.31
2023-04-02T08:49:36.967Z,97328.50
2023-04-02T08:52:05.387Z,97334.81
2023-04-02T08:54:38.428Z,97328.50
2023-04-02T08:57:10.594Z,97338.69
2023-04-02T08:59:41.187Z,97344.22
2023-04-02T09:02:30.802Z,97351.34
2023-04-02T09:05:01.317Z,97345.84
2023-04-02T09:07:30.427Z,97356.03
2023-04-02T09:10:01.394Z,97356.84
2023-04-02T09:12:31.994Z,97363.50
2023-04-02T09:15:12.534Z,97369.81
2023-04-02T09:17:53.059Z,97367.88
2023-04-02T09:20:26.098Z,97369.00
2023-04-02T09:22:56.591Z,97372.56
2023-04-02T09:25:28.209Z,97383.25
2023-04-02T09:28:01.477Z,97384.06
2023-04-02T09:30:41.869Z,97389.75
2023-04-02T09:33:10.925Z,97390.88
2023-04-02T09:35:56.292Z,97395.13
2023-04-02T09:38:29.062Z,97396.75
2023-04-02T09:41:01.385Z,97399.97
2023-04-02T09:43:31.732Z,97406.03
2023-04-02T09:46:02.839Z,97405.69
2023-04-02T09:48:34.371Z,97402.63
2023-04-02T09:51:14.276Z,97418.50
2023-04-02T09:53:44.784Z,97416.25
2023-04-02T09:56:21.718Z,97417.25
2023-04-02T09:59:04.704Z,97422.47
2023-04-02T10:01:34.811Z,97424.28
2023-04-02T10:04:05.487Z,97421.88
2023-04-02T10:06:35.856Z,97425.28
2023-04-02T10:09:22.557Z,97422.97
2023-04-02T10:11:54.925Z,97429.91
2023-04-02T10:14:29.137Z,97428.28
2023-04-02T10:17:00.741Z,97434.09
2023-04-02T10:19:34.640Z,97430.97
2023-04-02T10:22:07.715Z,97436.16
2023-04-02T10:24:36.257Z,97433.53
2023-04-02T10:27:22.725Z,97430.38
2023-04-02T10:30:05.089Z,97434.91
2023-04-02T10:32:38.758Z,97436.53
2023-04-02T10:35:18.050Z,97432.50
2023-04-02T10:38:01.586Z,97436.53
2023-04-02T10:40:36.797Z,97443.97
2023-04-02T10:43:40.201Z,97446.41
2023-04-02T10:46:15.632Z,97445.59
2023-04-02T10:48:53.071Z,97440.88
2023-04-02T10:51:33.117Z,97448.38
2023-04-02T10:54:04.548Z,97446.41
2023-04-02T10:56:44.015Z,97455.53
2023-04-02T10:59:25.049Z,97452.75
2023-04-02T11:01:56.374Z,97456.66
2023-04-02T11:04:30.364Z,97461.72
2023-04-02T11:07:13.236Z,97458.00
2023-04-02T11:09:46.067Z,97460.13
2023-04-02T11:12:22.792Z,97462.41
2023-04-02T11:14:54.914Z,97468.28
2023-04-02T11:17:25.041Z,97465.22
2023-04-02T11:19:54.104Z,97460.72
2023-04-02T11:22:24.087Z,97466.28
2023-04-02T11:24:54.669Z,97466.78
2023-04-02T11:27:27.950Z,97469.25
2023-04-02T11:30:20.077Z,97473.97
2023-04-02T11:32:49.669Z,97474.47
2023-04-02T11:35:38.539Z,97478.69
2023-04-02T11:38:52.954Z,97490.53
2023-04-02T11:41:59.162Z,97489.19
2023-04-02T11:44:27.586Z,97490.16
2023-04-02T11:47:16.717Z,97492.09
2023-04-02T11:50:05.971Z,97495.97
2023-04-02T11:52:38.799Z,97504.09
2023-04-02T11:55:24.293Z,97499.59
2023-04-02T11:58:03.261Z,97500.09
2023-04-02T12:00:55.403Z,97507.59
2023-04-02T12:03:54.582Z,97506.44
2023-04-02T12:06:34.467Z,97506.59
2023-04-02T12:09:14.791Z,97509.19
2023-04-02T12:11:44.217Z,97503.03
2023-04-02T12:14:32.997Z,97505.97
2023-04-02T12:17:03.177Z,97509.53
2023-04-02T12:19:33.299Z,97511.97
2023-04-02T12:22:02.591Z,97506.44
2023-04-02T12:24:31.463Z,97509.53
2023-04-02T12:27:14.929Z,97521.72
2023-04-02T12:29:43.769Z,97512.94
2023-04-02T12:32:22.035Z,97526.75
2023-04-02T12:34:52.592Z,97521.22
2023-04-02T12:37:24.645Z,97523.97
2023-04-02T12:39:56.324Z,97529.19
2023-04-02T12:42:29.926Z,97534.53
2023-04-02T12:44:58.726Z,97535.34
2023-04-02T12:47:27.634Z,97542.31
2023-04-02T12:49:59.457Z,97539.91
2023-04-02T12:52:30.247Z,97542.97
2023-04-02T12:55:00.772Z,97539.72
2023-04-02T12:57:40.585Z,97543.63
2023-04-02T13:00:29.887Z,97530.97
2023-04-02T13:03:14.707Z,97537.13
2023-04-02T13:05:47.656Z,97538.25
2023-04-02T13:08:21.463Z,97542.97
2023-04-02T13:10:55.575Z,97547.19
2023-04-02T13:13:28.953Z,97535.34
2023-04-02T13:16:07.003Z,97538.41
2023-04-02T13:18:37.735Z,97539.56
2023-04-02T13:21:23.821Z,97541.50
2023-04-02T13:23:52.254Z,97541.34
2023-04-02T13:26:24.128Z,97541.97
2023-04-02T13:29:03.851Z,97551.41
2023-04-02T13:31:33.904Z,97550.41
2023-04-02T13:34:02.985Z,97559.81
2023-04-02T13:36:32.982Z,97558.19
2023-04-02T13:39:01.591Z,97569.22
2023-04-02T13:41:32.052Z,97576.88
2023-04-02T13:44:02.828Z,97587.91
2023-04-02T13:46:33.499Z,97589.22
2023-04-02T13:49:02.529Z,97591.66
2023-04-02T13:51:38.490Z,97595.53
2023-04-02T13:54:10.531Z,97597.50
2023-04-02T13:56:39.041Z,97595.53
2023-04-02T13:59:07.515Z,97604.94
2023-04-02T14:01:37.308Z,97606.91
2023-04-02T14:04:07.366Z,97602.84
2023-04-02T14:07:03.285Z,97609.50
2023-04-02T14:09:39.052Z,97616.63
2023-04-02T14:12:18.828Z,97616.63
2023-04-02T14:15:11.032Z,97622.16
2023-04-02T14:17:51.757Z,97628.16
2023-04-02T14:20:37.491Z,97627.34
2023-04-02T14:23:23.521Z,97630.91
2023-04-02T14:26:02.537Z,97636.44
2023-04-02T14:28:42.699Z,97641.94
2023-04-02T14:31:16.509Z,97644.72
2023-04-02T14:33:54.093Z,97641.16
2023-04-02T14:36:29.554Z,97646.66
2023-04-02T14:39:06.415Z,97641.94
2023-04-02T14:41:42.939Z,97648.28
2023-04-02T14:44:13.058Z,97642.78
2023-04-02T14:46:41.762Z,97651.38
2023-04-02T14:49:23.094Z,97653.94
2023-04-02T14:51:58.563Z,97655.72
2023-04-02T14:54:34.426Z,97655.22
2023-04-02T14:57:07.408Z,97662.69
2023-04-02T14:59:40.807Z,97668.84
2023-04-02T15:02:17.834Z,97667.22
2023-04-02T15:04:59.552Z,97666.69
2023-04-02T15:07:39.270Z,97666.69
2023-04-02T15:10:18.189Z,97667.81
2023-04-02T15:12:49.407Z,97677.22
2023-04-02T15:15:36.982Z,97682.25
2023-04-02T15:18:12.071Z,97681.25
2023-04-02T15:20:48.790Z,97682.38
2023-04-02T15:23:32.048Z,97685.16
2023-04-02T15:26:13.320Z,97685.97
2023-04-02T15:28:47.849Z,97691.78
2023-04-02T15:31:16.782Z,97694.88
2023-04-02T15:33:46.507Z,97696.31
2023-04-02T15:36:45.536Z,97685.91
2023-04-02T15:39:35.879Z,97699.22
2023-04-02T15:42:16.089Z,97695.94
2023-04-02T15:44:54.759Z,97712.50
2023-04-02T15:47:29.586Z,97702.09
2023-04-02T15:50:07.740Z,97718.16
2023-04-02T15:52:42.183Z,97719.28
2023-04-02T15:55:22.568Z,97719.91
2023-04-02T15:58:25.622Z,97725.41
2023-04-02T16:01:08.500Z,97726.22
2023-04-02T16:04:18.175Z,97735.63
2023-04-02T16:07:15.200Z,97739.53
2023-04-02T16:09:52.827Z,97749.72
2023-04-02T16:12:22.269Z,97752.00
2023-04-02T16:14:53.275Z,97757.50
2023-04-02T16:17:27.400Z,97763.84
2023-04-02T16:20:02.395Z,97770.78
2023-04-02T16:22:33.257Z,97771.09
2023-04-02T16:25:05.677Z,97777.75
2023-04-02T16:27:39.220Z,97787.97
2023-04-02T16:30:41.041Z,97791.88
2023-04-02T16:33:21.717Z,97790.25
2023-04-02T16:36:00.320Z,97795.75
2023-04-02T16:38:44.660Z,97805.16
2023-04-02T16:41:23.508Z,97801.88
2023-04-02T16:44:02.094Z,97809.66
2023-04-02T16:46:40.990Z,97810.78
2023-04-02T16:49:21.254Z,97805.88
2023-04-02T16:51:54.968Z,97825.19
2023-04-02T16:54:32.103Z,97825.19
2023-04-02T16:57:19.451Z,97819.16
2023-04-02T16:59:58.060Z,97823.06
2023-04-02T17:02:42.181Z,97831.31
2023-04-02T17:05:23.061Z,97834.69
2023-04-02T17:08:01.486Z,97835.81
2023-04-02T17:10:40.671Z,97844.09
2023-04-02T17:13:19.077Z,97845.22
2023-04-02T17:15:51.865Z,97844.41
2023-04-02T17:18:25.276Z,97847.47
2023-04-02T17:21:05.166Z,97856.03
2023-04-02T17:23:55.349Z,97857.47
2023-04-02T17:26:28.312Z,97873.19
2023-04-02T17:28:59.338Z,97872.38
2023-04-02T17:31:34.013Z,97887.78
2023-04-02T17:34:13.046Z,97890.53
2023-04-02T17:36:50.089Z,97882.91
2023-04-02T17:39:25.470Z,97895.03
2023-04-02T17:42:03.109Z,97890.66
2023-04-02T17:44:42.879Z,97896.16
2023-04-02T17:47:20.438Z,97901.97
2023-04-02T17:50:02.949Z,97911.06
2023-04-02T17:52:39.096Z,97919.34
2023-04-02T17:55:17.281Z,97934.22
2023-04-02T17:58:01.128Z,97933.41
2023-04-02T18:00:46.562Z,97940.88
2023-04-02T18:03:32.797Z,97943.94
2023-04-02T18:06:06.941Z,97953.00
2023-04-02T18:08:49.217Z,97953.00
2023-04-02T18:11:27.806Z,97964.84
2023-04-02T18:14:00.858Z,97968.72
2023-04-02T18:16:49.134Z,97969.75
2023-04-02T18:19:20.586Z,97978.13
2023-04-02T18:21:57.213Z,97987.91
2023-04-02T18:24:39.018Z,97990.78
2023-04-02T18:27:31.703Z,97994.41
2023-04-02T18:30:09.290Z,97998.69
2023-04-02T18:32:56.941Z,98008.06
2023-04-02T18:35:28.470Z,98012.34
2023-04-02T18:38:10.004Z,98015.81
2023-04-02T18:40:44.429Z,98018.88
2023-04-02T18:43:24.720Z,98024.09
2023-04-02T18:45:59.890Z,98030.94
2023-04-02T18:48:43.603Z,98038.50
2023-04-02T18:51:17.396Z,98039.50
2023-04-02T18:53:48.493Z,98055.44
2023-04-02T18:56:19.731Z,98058.41
2023-04-02T18:58:56.990Z,98067.50
2023-04-02T19:01:31.565Z,98074.66
2023-04-02T19:04:06.016Z,98080.19
2023-04-02T19:06:38.018Z,98080.19
2023-04-02T19:09:16.661Z,98083.44
2023-04-02T19:11:45.782Z,98084.97
2023-04-02T19:14:17.789Z,98085.78
2023-04-02T19:17:13.202Z,98098.16
2023-04-02T19:19:47.087Z,98094.25
2023-04-02T19:22:26.290Z,98101.41
2023-04-02T19:25:19.384Z,98106.94
2023-04-02T19:28:02.610Z,98117.97
2023-04-02T19:30:41.829Z,98117.34
2023-04-02T19:33:21.641Z,98127.38
2023-04-02T19:35:56.827Z,98131.47
2023-04-02T19:38:43.690Z,98136.16
2023-04-02T19:41:26.165Z,98141.56
2023-04-02T19:43:55.926Z,98147.09
2023-04-02T19:46:26.332Z,98144.72
2023-04-02T19:49:03.591Z,98148.00
2023-04-02T19:51:33.509Z,98149.00
2023-04-02T19:54:02.127Z,98146.75
2023-04-02T19:56:32.023Z,98159.44
2023-04-02T19:59:07.766Z,98154.94
2023-04-02T20:01:45.502Z,98163.53
2023-04-02T20:04:14.193Z,98169.97
2023-04-02T20:06:42.760Z,98169.78
2023-04-02T20:09:11.274Z,98170.69
2023-04-02T20:11:41.113Z,98186.25
2023-04-02T20:14:09.590Z,98183.59
2023-04-02T20:16:38.667Z,98199.13
2023-04-02T20:19:07.229Z,98201.38
2023-04-02T20:21:38.260Z,98202.00
2023-04-02T20:24:07.859Z,98205.38
2023-04-02T20:26:38.415Z,98207.09
2023-04-02T20:29:08.261Z,98203.03
2023-04-02T20:31:37.228Z,98209.44
2023-04-02T20:34:08.520Z,98215.28
2023-04-02T20:36:37.124Z,98213.44
2023-04-02T20:39:07.773Z,98218.72
2023-04-02T20:41:36.442Z,98224.03
2023-04-02T20:44:04.958Z,98219.13
2023-04-02T20:46:34.834Z,98225.25
2023-04-02T20:49:03.842Z,98230.25
2023-04-02T20:51:32.519Z,98223.19
2023-04-02T20:54:01.392Z,98233.41
2023-04-02T20:56:29.958Z,98230.13
2023-04-02T20:58:58.540Z,98235.44
2023-04-02T21:01:30.037Z,98238.47
2023-04-02T21:04:02.122Z,98239.91
2023-04-02T21:06:32.354Z,98253.19
2023-04-02T21:09:01.895Z,98250.72
2023-04-02T21:11:30.916Z,98258.47
2023-04-02T21:13:59.485Z,98263.19
2023-04-02T21:16:31.436Z,98258.25
2023-04-02T21:19:03.380Z,98261.34
2023-04-02T21:21:31.897Z,98264.41
2023-04-02T21:24:01.786Z,98266.03
2023-04-02T21:26:34.224Z,98273.81
2023-04-02T21:29:04.206Z,98279.31
2023-04-02T21:31:35.900Z,98274.41
2023-04-02T21:34:06.880Z,98276.63
2023-04-02T21:36:37.435Z,98277.47
2023-04-02T21:39:07.519Z,98279.69
2023-04-02T21:41:37.807Z,98287.16
2023-04-02T21:44:08.591Z,98290.72
2023-04-02T21:46:39.461Z,98282.75
2023-04-02T21:49:11.228Z,98292.97
2023-04-02T21:51:41.111Z,98292.13
2023-04-02T21:54:09.977Z,98292.44
2023-04-02T21:56:39.929Z,98291.63
2023-04-02T21:59:10.302Z,98287.22
2023-04-02T22:01:41.892Z,98289.47
2023-04-02T22:04:16.670Z,98288.66
2023-04-02T22:06:46.367Z,98287.81
2023-04-02T22:09:16.613Z,98298.84
2023-04-02T22:11:46.774Z,98300.78
2023-04-02T22:14:15.690Z,98303.84
2023-04-02T22:16:44.738Z,98297.81
2023-04-02T22:19:16.979Z,98306.91
2023-04-02T22:21:46.263Z,98296.78
2023-04-02T22:24:18.576Z,98303.91
2023-04-02T22:26:47.579Z,98301.47
2023-04-02T22:29:16.765Z,98304.53
2023-04-02T22:31:45.694Z,98304.81
2023-04-02T22:34:15.532Z,98311.44
2023-04-02T22:36:44.015Z,98308.16
2023-04-02T22:39:13.162Z,98311.22
2023-04-02T22:41:41.571Z,98320.59
2023-04-02T22:44:14.754Z,98317.03
2023-04-02T22:46:43.195Z,98323.66
2023-04-02T22:49:12.398Z,98320.09
2023-04-02T22:51:43.107Z,98319.56
2023-04-02T22:54:12.516Z,98315.97
2023-04-02T22:56:41.100Z,98321.78
2023-04-02T22:59:09.569Z,98324.53
2023-04-02T23:01:38.079Z,98315.72
2023-04-02T23:04:06.810Z,98319.59
2023-04-02T23:06:35.343Z,98317.97
2023-04-02T23:09:05.211Z,98322.34
2023-04-02T23:11:33.614Z,98328.97
2023-04-02T23:14:02.073Z,98326.22
2023-04-02T23:16:31.314Z,98317.44
2023-04-02T23:19:00.049Z,98321.31
2023-04-02T23:21:28.694Z,98324.06
2023-04-02T23:23:57.111Z,98326.28
2023-04-02T23:26:29.461Z,98322.72
2023-04-02T23:28:59.366Z,98326.28
2023-04-02T23:31:28.125Z,98327.41
2023-04-02T23:33:56.713Z,98328.22
2023-04-02T23:36:26.685Z,98320.25
2023-04-02T23:38:56.679Z,98322.19
2023-04-02T23:41:27.680Z,98322.50
2023-04-02T23:43:56.874Z,98324.94
2023-04-02T23:46:26.427Z,98317.00
2023-04-02T23:48:55.701Z,98320.84
2023-04-02T23:51:25.688Z,98320.84
2023-04-02T23:53:55.365Z,98322.50
2023-04-02T23:56:24.064Z,98312.06
2023-04-02T23:58:53.969Z,98319.22
